Time;durP1;ratioP1;P1;durP2;ratioP2;P2;SDS_P1;SDS_P2;PMS_P1;PMS_P2;Temp;Humidity;BMP_temperature;BMP_pressure;BME280_temperature;BME280_humidity;BME280_pressure;Samples;Min_cycle;Max_cycle;Signal;HPM_P1;HPM_P2
2022/05/12 00:02:06;;;;;;;4.30;1.40;;;;;;;;;;5010674;28;20034;-61
2022/05/12 00:04:33;;;;;;;5.38;1.40;;;;;;;;;;5004330;28;20049;-61
2022/05/12 00:06:59;;;;;;;5.45;1.38;;;;;;;;;;5012707;28;20461;-61
2022/05/12 00:09:26;;;;;;;6.15;1.52;;;;;;;;;;5012458;28;20119;-61
2022/05/12 00:11:52;;;;;;;8.95;1.70;;;;;;;;;;5018483;28;20595;-61
2022/05/12 00:14:18;;;;;;;7.35;1.40;;;;;;;;;;5017321;28;20041;-61
2022/05/12 00:16:44;;;;;;;5.88;1.40;;;;;;;;;;5004361;28;20531;-61
2022/05/12 00:19:10;;;;;;;8.40;1.50;;;;;;;;;;5008589;28;20549;-61
2022/05/12 00:21:36;;;;;;;7.03;1.38;;;;;;;;;;5007230;28;20421;-61
2022/05/12 00:24:03;;;;;;;6.22;1.30;;;;;;;;;;5023937;28;20034;-61
2022/05/12 00:26:30;;;;;;;5.75;1.70;;;;;;;;;;5022997;28;20073;-61
2022/05/12 00:29:00;;;;;;;5.90;1.25;;;;;;;;;;5018501;28;20033;-61
2022/05/12 00:31:26;;;;;;;3.92;1.42;;;;;;;;;;5006827;28;20038;-61
2022/05/12 00:33:52;;;;;;;7.07;1.23;;;;;;;;;;5012403;28;20029;-61
2022/05/12 00:36:18;;;;;;;6.45;1.60;;;;;;;;;;5020652;28;20030;-61
2022/05/12 00:38:44;;;;;;;5.38;1.30;;;;;;;;;;5002426;28;20084;-61
2022/05/12 00:41:10;;;;;;;6.25;1.73;;;;;;;;;;5020002;28;20132;-61
2022/05/12 00:43:39;;;;;;;4.13;1.38;;;;;;;;;;5009937;28;20037;-61
2022/05/12 00:46:06;;;;;;;4.07;1.10;;;;;;;;;;5028149;28;20391;-61
2022/05/12 00:48:32;;;;;;;3.38;1.02;;;;;;;;;;5011869;28;20423;-61
2022/05/12 00:50:58;;;;;;;4.18;1.00;;;;;;;;;;5010762;28;20061;-62
2022/05/12 00:53:24;;;;;;;5.43;1.25;;;;;;;;;;5002498;28;20038;-61
2022/05/12 00:55:51;;;;;;;6.32;1.38;;;;;;;;;;5020734;28;20072;-61
2022/05/12 00:58:18;;;;;;;4.60;1.17;;;;;;;;;;5021279;28;20116;-61
2022/05/12 01:00:44;;;;;;;4.47;1.20;;;;;;;;;;5019411;28;20381;-61
2022/05/12 01:03:12;;;;;;;6.25;1.10;;;;;;;;;;5011863;28;20041;-61
2022/05/12 01:05:39;;;;;;;5.57;1.23;;;;;;;;;;5011103;28;20038;-62
2022/05/12 01:08:09;;;;;;;5.13;1.30;;;;;;;;;;5015591;28;20491;-61
2022/05/12 01:10:35;;;;;;;5.60;1.08;;;;;;;;;;5013072;28;20060;-61
2022/05/12 01:13:01;;;;;;;4.28;0.90;;;;;;;;;;5018104;28;20295;-61
2022/05/12 01:15:27;;;;;;;4.82;1.15;;;;;;;;;;5031110;28;20563;-61
2022/05/12 01:18:04;;;;;;;3.33;1.33;;;;;;;;;;5031139;28;20038;-61
2022/05/12 01:20:30;;;;;;;3.05;1.13;;;;;;;;;;5007463;28;20043;-61
2022/05/12 01:23:15;;;;;;;3.58;1.23;;;;;;;;;;5013662;28;20034;-61
2022/05/12 01:25:40;;;;;;;4.07;1.30;;;;;;;;;;5009653;28;20073;-61
2022/05/12 01:28:07;;;;;;;7.40;1.52;;;;;;;;;;5020267;28;20547;-61
2022/05/12 01:30:32;;;;;;;4.55;1.10;;;;;;;;;;5014456;28;20042;-61
2022/05/12 01:32:58;;;;;;;5.38;1.30;;;;;;;;;;4995502;28;20121;-61
2022/05/12 01:35:25;;;;;;;4.38;1.15;;;;;;;;;;5001500;28;20042;-61
2022/05/12 01:37:51;;;;;;;3.90;0.98;;;;;;;;;;5023525;28;20444;-61
2022/05/12 01:40:19;;;;;;;5.03;1.17;;;;;;;;;;5014818;28;20034;-61
2022/05/12 01:42:45;;;;;;;4.57;1.13;;;;;;;;;;5011141;28;20535;-62
2022/05/12 01:45:11;;;;;;;3.67;0.88;;;;;;;;;;5018127;28;20125;-61
2022/05/12 01:47:37;;;;;;;4.90;1.23;;;;;;;;;;5025743;28;20037;-61
2022/05/12 01:50:05;;;;;;;4.40;1.48;;;;;;;;;;5022325;28;20506;-61
2022/05/12 01:52:31;;;;;;;5.75;1.38;;;;;;;;;;5013981;28;20041;-61
2022/05/12 01:54:57;;;;;;;5.30;1.45;;;;;;;;;;5021755;28;20401;-61
2022/05/12 01:57:23;;;;;;;4.82;1.30;;;;;;;;;;5025165;28;20099;-61
2022/05/12 01:59:52;;;;;;;2.53;1.05;;;;;;;;;;5014308;28;20129;-61
2022/05/12 02:02:18;;;;;;;4.72;1.30;;;;;;;;;;5012702;28;20044;-61
2022/05/12 02:04:47;;;;;;;3.55;1.33;;;;;;;;;;5013360;28;20121;-60
2022/05/12 02:07:13;;;;;;;4.28;1.23;;;;;;;;;;4999238;28;20570;-61
2022/05/12 02:09:39;;;;;;;3.72;1.40;;;;;;;;;;5025530;28;20045;-61
2022/05/12 02:12:05;;;;;;;3.10;1.40;;;;;;;;;;5028034;28;20099;-61
2022/05/12 02:14:31;;;;;;;5.30;1.25;;;;;;;;;;5025892;28;20126;-61
2022/05/12 02:16:57;;;;;;;6.45;1.30;;;;;;;;;;5014226;28;20121;-62
2022/05/12 02:19:24;;;;;;;4.68;1.48;;;;;;;;;;5005032;28;20050;-61
2022/05/12 02:21:50;;;;;;;3.17;1.30;;;;;;;;;;5023798;28;20045;-61
2022/05/12 02:24:16;;;;;;;6.63;1.58;;;;;;;;;;5004752;28;20125;-61
2022/05/12 02:26:42;;;;;;;2.85;1.50;;;;;;;;;;5001900;28;20112;-61
2022/05/12 02:29:08;;;;;;;4.53;1.75;;;;;;;;;;5030485;28;20045;-61
2022/05/12 02:31:34;;;;;;;3.13;1.52;;;;;;;;;;5033833;28;20079;-61
2022/05/12 02:34:00;;;;;;;2.60;1.40;;;;;;;;;;5016313;28;20114;-61
2022/05/12 02:36:26;;;;;;;6.35;1.92;;;;;;;;;;5023535;28;20070;-61
2022/05/12 02:38:52;;;;;;;3.72;1.80;;;;;;;;;;5029248;28;20041;-61
2022/05/12 02:41:18;;;;;;;4.35;1.85;;;;;;;;;;5025130;28;20037;-61
2022/05/12 02:43:44;;;;;;;4.57;1.77;;;;;;;;;;5018370;28;20403;-61
2022/05/12 02:46:11;;;;;;;3.53;1.60;;;;;;;;;;5005646;28;20045;-61
2022/05/12 02:48:38;;;;;;;3.90;1.77;;;;;;;;;;5015912;28;20492;-61
2022/05/12 02:51:04;;;;;;;3.42;1.58;;;;;;;;;;5030304;28;20033;-61
2022/05/12 02:53:30;;;;;;;3.75;1.60;;;;;;;;;;5017338;28;20057;-61
2022/05/12 02:55:58;;;;;;;4.43;1.60;;;;;;;;;;5017717;28;20480;-61
2022/05/12 02:58:24;;;;;;;4.13;1.65;;;;;;;;;;5005189;28;20030;-61
2022/05/12 03:00:52;;;;;;;4.75;2.00;;;;;;;;;;5013043;28;20037;-63
2022/05/12 03:03:18;;;;;;;4.72;1.60;;;;;;;;;;5023859;22;20046;-59
2022/05/12 03:05:44;;;;;;;4.50;1.50;;;;;;;;;;5013414;28;20045;-59
2022/05/12 03:08:11;;;;;;;5.03;1.70;;;;;;;;;;5009692;28;20030;-59
2022/05/12 03:10:37;;;;;;;4.22;1.90;;;;;;;;;;5021025;28;20091;-59
2022/05/12 03:13:04;;;;;;;5.45;2.35;;;;;;;;;;5025104;28;20116;-59
2022/05/12 03:15:30;;;;;;;5.88;2.05;;;;;;;;;;5023100;28;20037;-59
2022/05/12 03:17:56;;;;;;;6.00;1.92;;;;;;;;;;5011600;28;20125;-59
2022/05/12 03:20:23;;;;;;;3.17;1.98;;;;;;;;;;5015512;28;20038;-59
2022/05/12 03:22:49;;;;;;;4.43;1.95;;;;;;;;;;5014168;28;20072;-59
2022/05/12 03:25:17;;;;;;;4.55;2.00;;;;;;;;;;5011937;28;20041;-59
2022/05/12 03:27:43;;;;;;;5.60;1.98;;;;;;;;;;5010047;28;20083;-59
2022/05/12 03:30:11;;;;;;;8.25;2.25;;;;;;;;;;5009744;28;20411;-59
2022/05/12 03:32:37;;;;;;;6.15;2.00;;;;;;;;;;5005606;28;20046;-59
2022/05/12 03:35:04;;;;;;;7.07;2.00;;;;;;;;;;5008053;28;20404;-59
2022/05/12 03:37:30;;;;;;;8.82;2.20;;;;;;;;;;5011417;28;20037;-60
2022/05/12 03:39:56;;;;;;;6.10;2.10;;;;;;;;;;5009677;28;20030;-60
2022/05/12 03:42:22;;;;;;;5.30;2.30;;;;;;;;;;5011311;28;20041;-59
2022/05/12 03:44:49;;;;;;;7.65;2.10;;;;;;;;;;5011158;28;20049;-59
2022/05/12 03:47:20;;;;;;;4.88;2.15;;;;;;;;;;5014581;28;20071;-60
2022/05/12 03:49:50;;;;;;;7.90;2.15;;;;;;;;;;5011761;28;20034;-59
2022/05/12 03:52:17;;;;;;;4.72;1.88;;;;;;;;;;5025458;28;20033;-59
2022/05/12 03:54:43;;;;;;;4.40;2.30;;;;;;;;;;5021047;28;20041;-59
2022/05/12 03:57:10;;;;;;;7.28;2.03;;;;;;;;;;5016617;28;20042;-59
2022/05/12 03:59:38;;;;;;;4.88;2.35;;;;;;;;;;5007171;28;20034;-60
2022/05/12 04:02:04;;;;;;;4.85;2.08;;;;;;;;;;5001223;28;20614;-60
2022/05/12 04:04:30;;;;;;;10.18;2.08;;;;;;;;;;5010234;28;20468;-59
2022/05/12 04:06:56;;;;;;;7.43;2.45;;;;;;;;;;5010918;28;20057;-59
2022/05/12 04:09:22;;;;;;;9.68;2.25;;;;;;;;;;5010173;28;20397;-59
2022/05/12 04:11:48;;;;;;;4.93;2.33;;;;;;;;;;5012053;28;20037;-59
2022/05/12 04:14:14;;;;;;;9.77;2.85;;;;;;;;;;5005465;28;20038;-60
2022/05/12 04:16:40;;;;;;;8.73;2.70;;;;;;;;;;5008086;28;20522;-59
2022/05/12 04:19:06;;;;;;;6.93;2.75;;;;;;;;;;5010119;28;20041;-59
2022/05/12 04:21:34;;;;;;;8.10;2.47;;;;;;;;;;5009554;28;20068;-59
2022/05/12 04:24:01;;;;;;;7.32;2.70;;;;;;;;;;4997343;28;20041;-59
2022/05/12 04:26:27;;;;;;;7.57;2.67;;;;;;;;;;5010860;28;20488;-59
2022/05/12 04:28:53;;;;;;;6.90;2.45;;;;;;;;;;5002846;28;20034;-59
2022/05/12 04:31:19;;;;;;;6.78;2.97;;;;;;;;;;5009544;28;20038;-59
2022/05/12 04:36:31;;;;;;;10.95;2.90;;;;;;;;;;4979489;28;20069;-59
2022/05/12 04:38:59;;;;;;;8.88;2.78;;;;;;;;;;5008659;28;20491;-59
2022/05/12 04:41:25;;;;;;;10.57;3.33;;;;;;;;;;5009531;28;20045;-59
2022/05/12 04:43:51;;;;;;;9.38;3.40;;;;;;;;;;5006161;28;20120;-59
2022/05/12 04:46:17;;;;;;;10.13;3.60;;;;;;;;;;5010315;28;20091;-59
2022/05/12 04:48:43;;;;;;;9.43;4.30;;;;;;;;;;5010778;28;20045;-60
2022/05/12 04:51:09;;;;;;;11.45;4.25;;;;;;;;;;5019582;28;20046;-59
2022/05/12 04:53:36;;;;;;;12.20;4.30;;;;;;;;;;5005998;28;20033;-59
2022/05/12 04:56:02;;;;;;;9.20;3.90;;;;;;;;;;5006801;28;20034;-59
2022/05/12 04:58:28;;;;;;;10.73;4.47;;;;;;;;;;5014110;28;20498;-60
2022/05/12 05:00:54;;;;;;;8.32;4.60;;;;;;;;;;5011291;28;20049;-60
2022/05/12 05:03:19;;;;;;;14.40;4.65;;;;;;;;;;5010196;28;20077;-60
2022/05/12 05:05:46;;;;;;;11.57;4.68;;;;;;;;;;5008165;28;20065;-60
2022/05/12 05:08:13;;;;;;;16.23;5.78;;;;;;;;;;5009944;28;20044;-60
2022/05/12 05:10:39;;;;;;;9.73;5.78;;;;;;;;;;5007595;28;20045;-59
2022/05/12 05:13:05;;;;;;;11.13;5.50;;;;;;;;;;5009953;28;20042;-59
2022/05/12 05:15:31;;;;;;;15.23;6.03;;;;;;;;;;5011558;28;20037;-59
2022/05/12 05:17:57;;;;;;;13.27;6.03;;;;;;;;;;5009566;28;20034;-59
2022/05/12 05:20:25;;;;;;;13.57;6.07;;;;;;;;;;5009126;28;20045;-60
2022/05/12 05:22:51;;;;;;;11.38;5.70;;;;;;;;;;5010464;28;20117;-60
2022/05/12 05:25:17;;;;;;;13.23;6.05;;;;;;;;;;5011546;28;20037;-60
2022/05/12 05:27:45;;;;;;;12.55;5.80;;;;;;;;;;5010335;28;20080;-60
2022/05/12 05:30:12;;;;;;;11.38;6.07;;;;;;;;;;5003478;28;20037;-60
2022/05/12 05:32:38;;;;;;;15.93;6.68;;;;;;;;;;5007044;28;20088;-60
2022/05/12 05:35:06;;;;;;;14.73;6.68;;;;;;;;;;5006053;28;20439;-60
2022/05/12 05:37:32;;;;;;;14.50;5.97;;;;;;;;;;5002732;28;20091;-60
2022/05/12 05:39:58;;;;;;;15.30;6.72;;;;;;;;;;5003193;28;20037;-60
2022/05/12 05:42:24;;;;;;;14.38;6.38;;;;;;;;;;5008054;28;20048;-60
2022/05/12 05:44:50;;;;;;;13.55;6.00;;;;;;;;;;5009757;28;20087;-60
2022/05/12 05:47:16;;;;;;;12.80;6.18;;;;;;;;;;5010240;28;20069;-60
2022/05/12 05:49:43;;;;;;;15.55;6.60;;;;;;;;;;5011622;28;20065;-60
2022/05/12 05:54:54;;;;;;;13.80;6.50;;;;;;;;;;5009149;28;20053;-60
2022/05/12 05:57:24;;;;;;;12.30;6.28;;;;;;;;;;5010523;28;20069;-60
2022/05/12 05:59:50;;;;;;;13.65;7.57;;;;;;;;;;5007205;28;20531;-60
2022/05/12 06:02:16;;;;;;;14.55;6.75;;;;;;;;;;5005470;28;20120;-60
2022/05/12 06:04:42;;;;;;;17.98;6.57;;;;;;;;;;5010224;28;20125;-60
2022/05/12 06:07:08;;;;;;;15.00;6.63;;;;;;;;;;5011066;28;20408;-60
2022/05/12 06:09:34;;;;;;;16.80;7.55;;;;;;;;;;5008488;28;20081;-60
2022/05/12 06:12:00;;;;;;;13.88;7.30;;;;;;;;;;5016843;28;20439;-60
2022/05/12 06:14:28;;;;;;;17.63;6.80;;;;;;;;;;5012873;28;20531;-60
2022/05/12 06:16:54;;;;;;;14.68;7.65;;;;;;;;;;5013005;28;20042;-60
2022/05/12 06:19:20;;;;;;;16.08;6.90;;;;;;;;;;5009438;28;20038;-59
2022/05/12 06:21:46;;;;;;;15.70;6.78;;;;;;;;;;5005034;28;20069;-59
2022/05/12 06:24:12;;;;;;;14.15;6.97;;;;;;;;;;5011857;28;20037;-59
2022/05/12 06:26:38;;;;;;;13.68;6.43;;;;;;;;;;5010606;28;20451;-59
2022/05/12 06:29:06;;;;;;;15.75;7.10;;;;;;;;;;5001085;28;20065;-59
2022/05/12 06:31:33;;;;;;;13.07;6.88;;;;;;;;;;5008988;28;20113;-59
2022/05/12 06:33:59;;;;;;;13.98;6.82;;;;;;;;;;4998484;28;20042;-59
2022/05/12 06:36:26;;;;;;;15.65;6.88;;;;;;;;;;5006951;28;20034;-59
2022/05/12 06:38:52;;;;;;;10.60;5.82;;;;;;;;;;5004729;28;20041;-59
2022/05/12 06:41:18;;;;;;;17.33;6.75;;;;;;;;;;5008876;28;20037;-59
2022/05/12 06:43:47;;;;;;;16.58;6.70;;;;;;;;;;5004042;28;20224;-59
2022/05/12 06:46:16;;;;;;;11.50;6.40;;;;;;;;;;5007567;28;20045;-59
2022/05/12 06:48:49;;;;;;;11.52;5.65;;;;;;;;;;4999224;28;20052;-60
2022/05/12 06:51:15;;;;;;;10.40;4.93;;;;;;;;;;5011403;28;20411;-60
2022/05/12 06:53:41;;;;;;;13.80;5.65;;;;;;;;;;5011466;28;20034;-59
2022/05/12 06:56:08;;;;;;;11.38;5.68;;;;;;;;;;5006963;28;20049;-59
2022/05/12 06:58:34;;;;;;;9.02;4.80;;;;;;;;;;5006355;28;20037;-58
2022/05/12 07:01:00;;;;;;;8.95;4.57;;;;;;;;;;5006176;28;20042;-59
2022/05/12 07:03:27;;;;;;;11.70;5.05;;;;;;;;;;5012681;28;20072;-59
2022/05/12 07:05:53;;;;;;;13.05;4.90;;;;;;;;;;5005609;28;20041;-59
2022/05/12 07:08:19;;;;;;;12.88;4.95;;;;;;;;;;5007214;28;20064;-59
2022/05/12 07:10:45;;;;;;;13.68;4.97;;;;;;;;;;5004288;28;20034;-59
2022/05/12 07:13:18;;;;;;;15.80;5.25;;;;;;;;;;5008565;28;20038;-58
2022/05/12 07:15:44;;;;;;;9.43;4.20;;;;;;;;;;5009956;28;20065;-58
2022/05/12 07:18:10;;;;;;;9.07;4.38;;;;;;;;;;5004576;28;20034;-58
2022/05/12 07:28:50;;;;;;;9.23;3.88;;;;;;;;;;5006164;28;20041;-59
2022/05/12 07:31:16;;;;;;;7.85;3.25;;;;;;;;;;5007822;28;20037;-59
2022/05/12 07:33:43;;;;;;;10.75;3.60;;;;;;;;;;5009828;28;20044;-59
2022/05/12 07:36:32;;;;;;;7.22;2.85;;;;;;;;;;5006921;28;20452;-59
2022/05/12 07:39:00;;;;;;;5.13;2.90;;;;;;;;;;5016653;28;20046;-59
2022/05/12 07:41:26;;;;;;;10.57;3.05;;;;;;;;;;5011593;28;20046;-59
2022/05/12 07:43:53;;;;;;;9.05;2.90;;;;;;;;;;5006469;28;20108;-59
2022/05/12 07:46:22;;;;;;;7.40;2.83;;;;;;;;;;5011135;28;20164;-59
2022/05/12 07:48:48;;;;;;;7.25;2.55;;;;;;;;;;5015615;28;20042;-59
2022/05/12 07:51:14;;;;;;;7.40;2.58;;;;;;;;;;5010770;28;20045;-59
2022/05/12 07:53:40;;;;;;;8.85;2.95;;;;;;;;;;5007265;28;20030;-59
2022/05/12 07:56:07;;;;;;;9.18;2.85;;;;;;;;;;4999717;28;20038;-59
2022/05/12 07:58:33;;;;;;;5.82;2.58;;;;;;;;;;5009695;28;20037;-59
2022/05/12 08:01:00;;;;;;;9.18;2.88;;;;;;;;;;5010973;28;20562;-59
2022/05/12 08:03:26;;;;;;;10.05;3.45;;;;;;;;;;5023657;28;20085;-59
2022/05/12 08:05:53;;;;;;;13.63;3.80;;;;;;;;;;5014365;28;20076;-59
2022/05/12 08:08:19;;;;;;;7.78;2.83;;;;;;;;;;5017823;28;20069;-59
2022/05/12 08:10:45;;;;;;;8.60;2.90;;;;;;;;;;5008646;28;20038;-59
2022/05/12 08:13:16;;;;;;;8.25;2.65;;;;;;;;;;5009578;28;20539;-59
2022/05/12 08:15:43;;;;;;;5.85;2.50;;;;;;;;;;5009419;28;20066;-59
2022/05/12 08:18:09;;;;;;;10.38;3.00;;;;;;;;;;5008373;28;20042;-59
2022/05/12 08:20:35;;;;;;;8.07;2.60;;;;;;;;;;5006211;28;20064;-59
2022/05/12 08:23:01;;;;;;;7.38;2.50;;;;;;;;;;5010107;28;20077;-59
2022/05/12 08:25:27;;;;;;;9.63;2.67;;;;;;;;;;4987183;28;20042;-60
2022/05/12 08:27:53;;;;;;;7.47;2.78;;;;;;;;;;5003400;28;20056;-59
2022/05/12 08:30:19;;;;;;;6.10;2.40;;;;;;;;;;5008129;28;20108;-59
2022/05/12 08:32:45;;;;;;;5.93;2.50;;;;;;;;;;5020113;28;20041;-59
2022/05/12 08:35:12;;;;;;;7.30;2.88;;;;;;;;;;5004112;28;20045;-59
2022/05/12 08:37:41;;;;;;;3.65;2.25;;;;;;;;;;4998965;28;20130;-59
2022/05/12 08:40:08;;;;;;;6.03;2.50;;;;;;;;;;5006990;28;20496;-59
2022/05/12 08:42:47;;;;;;;5.40;2.40;;;;;;;;;;5012224;28;20659;-59
2022/05/12 08:45:15;;;;;;;5.72;3.00;;;;;;;;;;5011268;28;20054;-59
2022/05/12 08:47:43;;;;;;;5.15;2.42;;;;;;;;;;5001646;28;20050;-59
2022/05/12 08:50:11;;;;;;;7.25;2.15;;;;;;;;;;4996430;28;20042;-59
2022/05/12 08:52:47;;;;;;;4.47;2.65;;;;;;;;;;5003665;28;20034;-63
2022/05/12 08:55:16;;;;;;;7.03;2.92;;;;;;;;;;5012352;28;20033;-63
2022/05/12 08:57:58;;;;;;;5.85;2.70;;;;;;;;;;5010946;28;20038;-63
2022/05/12 09:00:26;;;;;;;6.75;2.40;;;;;;;;;;5010759;28;20037;-63
2022/05/12 09:02:57;;;;;;;6.10;2.10;;;;;;;;;;5024732;23;20038;-67
2022/05/12 09:05:26;;;;;;;6.03;2.15;;;;;;;;;;5013906;28;20499;-67
2022/05/12 09:07:59;;;;;;;6.53;2.22;;;;;;;;;;5013956;28;20034;-67
2022/05/12 09:10:37;;;;;;;5.45;1.98;;;;;;;;;;5005100;28;20042;-68
2022/05/12 09:13:07;;;;;;;5.55;2.17;;;;;;;;;;5003549;28;20072;-67
2022/05/12 09:15:33;;;;;;;5.45;2.00;;;;;;;;;;5008885;28;20125;-67
2022/05/12 09:18:05;;;;;;;8.73;1.90;;;;;;;;;;5010363;28;20057;-68
2022/05/12 09:20:33;;;;;;;6.07;1.83;;;;;;;;;;5006340;28;20431;-67
2022/05/12 09:22:59;;;;;;;4.80;1.63;;;;;;;;;;5006864;28;20045;-68
2022/05/12 09:25:36;;;;;;;5.47;1.83;;;;;;;;;;5010000;28;20037;-68
2022/05/12 09:28:21;;;;;;;6.38;2.10;;;;;;;;;;5008964;28;20121;-61
2022/05/12 09:30:48;;;;;;;5.78;1.85;;;;;;;;;;5005422;28;20090;-61
2022/05/12 09:33:22;;;;;;;3.75;1.48;;;;;;;;;;5005834;28;20045;-61
2022/05/12 09:35:56;;;;;;;4.10;1.90;;;;;;;;;;5004167;28;20085;-61
2022/05/12 09:38:25;;;;;;;3.67;1.73;;;;;;;;;;4999645;28;20073;-61
2022/05/12 09:40:51;;;;;;;5.90;1.88;;;;;;;;;;5009779;28;20411;-61
2022/05/12 09:43:17;;;;;;;5.80;2.03;;;;;;;;;;5016176;28;20042;-61
2022/05/12 09:45:44;;;;;;;5.63;1.88;;;;;;;;;;5011092;28;20043;-61
2022/05/12 09:48:17;;;;;;;4.45;1.73;;;;;;;;;;5006554;28;20034;-61
2022/05/12 09:50:43;;;;;;;4.72;1.40;;;;;;;;;;5013990;28;20049;-60
2022/05/12 09:53:11;;;;;;;6.05;1.45;;;;;;;;;;5015102;28;20411;-61
2022/05/12 09:55:42;;;;;;;5.00;1.67;;;;;;;;;;5013438;28;20046;-61
2022/05/12 09:58:14;;;;;;;4.22;1.60;;;;;;;;;;5010854;28;20111;-61
2022/05/12 10:00:40;;;;;;;5.93;2.00;;;;;;;;;;5021695;28;20116;-61
2022/05/12 10:09:05;;;;;;;3.88;1.33;;;;;;;;;;5011531;28;20045;-61
2022/05/12 10:11:50;;;;;;;3.78;1.40;;;;;;;;;;5008400;28;20077;-61
2022/05/12 10:14:22;;;;;;;5.90;2.15;;;;;;;;;;5010636;28;20044;-61
2022/05/12 10:16:49;;;;;;;3.90;1.77;;;;;;;;;;5013922;28;20506;-61
2022/05/12 10:19:22;;;;;;;7.80;1.90;;;;;;;;;;5014048;28;20500;-61
2022/05/12 10:21:52;;;;;;;4.32;1.60;;;;;;;;;;5013740;28;20045;-61
2022/05/12 10:24:20;;;;;;;4.18;1.90;;;;;;;;;;5014683;28;20080;-61
2022/05/12 10:26:58;;;;;;;3.83;1.17;;;;;;;;;;5014417;28;20042;-61
2022/05/12 10:29:23;;;;;;;4.43;1.35;;;;;;;;;;5013624;28;20042;-61
2022/05/12 10:32:05;;;;;;;4.88;1.38;;;;;;;;;;5014227;28;20096;-61
2022/05/12 10:34:40;;;;;;;3.08;1.05;;;;;;;;;;5015153;28;20037;-61
2022/05/12 10:37:23;;;;;;;4.72;1.50;;;;;;;;;;5011890;28;20451;-61
2022/05/12 10:40:01;;;;;;;4.60;1.63;;;;;;;;;;5011060;28;20038;-61
2022/05/12 10:42:45;;;;;;;3.28;1.52;;;;;;;;;;5012347;28;20053;-61
2022/05/12 10:45:25;;;;;;;4.72;1.45;;;;;;;;;;5011889;28;20065;-61
2022/05/12 10:48:07;;;;;;;5.80;1.58;;;;;;;;;;5013559;28;20049;-61
2022/05/12 10:50:48;;;;;;;4.35;1.70;;;;;;;;;;5013152;28;20140;-61
2022/05/12 10:53:14;;;;;;;;;;;;;;;;;;5013395;28;20037;-61
2022/05/12 10:55:45;;;;;;;5.43;1.80;;;;;;;;;;5010774;28;19917;-61
2022/05/12 10:58:22;;;;;;;5.97;1.40;;;;;;;;;;5011383;28;20029;-61
2022/05/12 11:01:04;;;;;;;4.18;1.52;;;;;;;;;;5012894;28;20049;-62
2022/05/12 11:03:34;;;;;;;2.45;1.50;;;;;;;;;;5009088;28;20115;-61
2022/05/12 11:06:02;;;;;;;4.40;1.40;;;;;;;;;;5013831;28;20060;-61
2022/05/12 11:08:37;;;;;;;3.13;1.27;;;;;;;;;;5008598;28;20049;-62
2022/05/12 11:11:08;;;;;;;5.40;1.27;;;;;;;;;;5012110;28;20044;-61
2022/05/12 11:13:40;;;;;;;5.07;1.70;;;;;;;;;;5013233;28;20034;-62
2022/05/12 11:16:14;;;;;;;5.07;1.42;;;;;;;;;;5009094;28;20052;-61
2022/05/12 11:18:52;;;;;;;3.72;1.60;;;;;;;;;;5012706;28;20038;-61
2022/05/12 11:21:18;;;;;;;5.00;1.13;;;;;;;;;;5013208;28;20037;-61
2022/05/12 11:24:00;;;;;;;3.10;1.05;;;;;;;;;;5013271;28;20052;-61
2022/05/12 11:26:32;;;;;;;4.25;1.40;;;;;;;;;;5012286;28;20053;-61
2022/05/12 11:31:55;;;;;;;4.63;1.60;;;;;;;;;;5011964;28;20041;-61
2022/05/12 11:34:23;;;;;;;5.72;1.77;;;;;;;;;;5012923;28;20072;-61
2022/05/12 11:36:50;;;;;;;3.03;1.20;;;;;;;;;;5012849;28;20037;-61
2022/05/12 11:39:28;;;;;;;3.10;1.17;;;;;;;;;;5011999;28;20488;-61
2022/05/12 11:42:06;;;;;;;8.38;1.27;;;;;;;;;;5007759;28;20040;-61
2022/05/12 11:44:39;;;;;;;5.85;1.30;;;;;;;;;;5004840;28;20042;-61
2022/05/12 11:47:11;;;;;;;2.45;1.20;;;;;;;;;;5009184;28;20040;-62
2022/05/12 11:49:42;;;;;;;3.45;1.00;;;;;;;;;;5012757;28;20041;-61
2022/05/12 11:52:27;;;;;;;3.42;1.30;;;;;;;;;;5007847;28;20053;-61
2022/05/12 11:54:55;;;;;;;3.17;1.02;;;;;;;;;;5005581;28;20099;-61
2022/05/12 11:57:24;;;;;;;7.13;1.40;;;;;;;;;;5011314;28;20038;-61
2022/05/12 11:59:51;;;;;;;3.78;1.05;;;;;;;;;;5011883;28;20038;-61
2022/05/12 12:02:30;;;;;;;3.80;1.33;;;;;;;;;;5007403;28;20507;-61
2022/05/12 12:04:56;;;;;;;4.35;1.60;;;;;;;;;;5008363;28;20035;-61
2022/05/12 12:07:25;;;;;;;3.90;0.80;;;;;;;;;;5011578;28;20087;-61
2022/05/12 12:09:53;;;;;;;4.05;0.82;;;;;;;;;;5009645;28;20488;-62
2022/05/12 12:12:38;;;;;;;2.28;1.15;;;;;;;;;;5009096;28;20073;-62
2022/05/12 12:15:05;;;;;;;4.43;0.90;;;;;;;;;;5011925;28;20156;-61
2022/05/12 12:17:32;;;;;;;2.70;1.25;;;;;;;;;;5008866;28;20045;-62
2022/05/12 12:20:03;;;;;;;5.78;1.20;;;;;;;;;;5011506;28;20042;-61
2022/05/12 12:22:36;;;;;;;5.55;1.27;;;;;;;;;;5011524;28;20446;-62
2022/05/12 12:25:05;;;;;;;5.75;1.08;;;;;;;;;;5007767;28;20515;-61
2022/05/12 12:27:50;;;;;;;2.63;1.00;;;;;;;;;;5010091;28;20053;-61
2022/05/12 12:30:27;;;;;;;4.25;1.10;;;;;;;;;;5007281;28;20045;-61
2022/05/12 12:33:09;;;;;;;2.95;1.13;;;;;;;;;;5011340;28;20092;-61
2022/05/12 12:35:50;;;;;;;2.70;0.93;;;;;;;;;;5000568;28;20088;-61
2022/05/12 12:38:35;;;;;;;3.13;0.98;;;;;;;;;;5009442;28;20399;-62
2022/05/12 12:41:02;;;;;;;2.92;1.23;;;;;;;;;;5007083;28;20154;-62
2022/05/12 12:43:31;;;;;;;3.28;0.80;;;;;;;;;;5007994;28;20073;-61
2022/05/12 12:45:57;;;;;;;4.95;1.33;;;;;;;;;;5006897;28;20045;-61
2022/05/12 12:48:32;;;;;;;3.35;0.95;;;;;;;;;;5011102;28;20038;-61
2022/05/12 12:50:58;;;;;;;6.88;1.40;;;;;;;;;;5011504;28;20522;-62
2022/05/12 12:56:31;;;;;;;4.45;0.90;;;;;;;;;;5002317;28;20496;-61
2022/05/12 12:58:58;;;;;;;3.05;0.80;;;;;;;;;;5010940;28;20046;-61
2022/05/12 13:01:24;;;;;;;3.67;0.88;;;;;;;;;;5012173;28;20053;-61
2022/05/12 13:03:54;;;;;;;2.40;0.82;;;;;;;;;;5011381;28;20038;-61
2022/05/12 13:06:26;;;;;;;9.25;1.40;;;;;;;;;;5012113;28;20531;-62
2022/05/12 13:09:00;;;;;;;4.32;1.00;;;;;;;;;;5009116;28;20042;-61
2022/05/12 13:11:26;;;;;;;3.17;1.00;;;;;;;;;;5007942;28;20753;-61
2022/05/12 13:13:53;;;;;;;5.78;1.45;;;;;;;;;;5006609;28;20045;-61
2022/05/12 13:16:21;;;;;;;5.30;0.90;;;;;;;;;;5011673;28;20526;-61
2022/05/12 13:18:50;;;;;;;2.58;0.90;;;;;;;;;;5011138;28;20045;-61
2022/05/12 13:21:22;;;;;;;2.42;1.00;;;;;;;;;;5013005;28;20052;-60
2022/05/12 13:23:58;;;;;;;2.25;0.80;;;;;;;;;;5015395;28;20120;-61
2022/05/12 13:26:25;;;;;;;2.17;1.02;;;;;;;;;;5013961;28;20400;-61
2022/05/12 13:28:51;;;;;;;2.95;0.93;;;;;;;;;;5013278;28;20104;-60
2022/05/12 13:31:23;;;;;;;3.40;1.10;;;;;;;;;;5013409;28;20465;-61
2022/05/12 13:33:55;;;;;;;2.05;0.98;;;;;;;;;;5009973;28;20433;-60
2022/05/12 13:36:23;;;;;;;4.82;1.17;;;;;;;;;;5014230;28;20045;-61
2022/05/12 13:38:49;;;;;;;2.72;1.25;;;;;;;;;;5009606;28;20041;-61
2022/05/12 13:41:26;;;;;;;1.92;1.10;;;;;;;;;;5015294;28;20037;-61
2022/05/12 13:43:52;;;;;;;3.92;1.08;;;;;;;;;;5015054;28;20037;-61
2022/05/12 13:46:18;;;;;;;2.70;1.20;;;;;;;;;;5015070;28;20471;-60
2022/05/12 13:49:02;;;;;;;4.10;1.20;;;;;;;;;;5013052;28;20038;-61
2022/05/12 13:51:47;;;;;;;5.35;1.58;;;;;;;;;;5007936;28;20100;-61
2022/05/12 13:54:25;;;;;;;5.88;1.30;;;;;;;;;;5006344;28;20229;-61
2022/05/12 13:56:52;;;;;;;3.75;1.33;;;;;;;;;;5010577;28;20045;-61
2022/05/12 13:59:31;;;;;;;5.22;1.33;;;;;;;;;;5015176;28;20519;-60
2022/05/12 14:02:32;;;;;;;4.80;1.80;;;;;;;;;;5015143;28;20148;-61
2022/05/12 14:05:01;;;;;;;3.25;1.40;;;;;;;;;;4970026;28;20121;-60
2022/05/12 14:07:29;;;;;;;2.83;1.40;;;;;;;;;;5009044;28;20129;-60
2022/05/12 14:09:57;;;;;;;3.33;1.35;;;;;;;;;;5012867;28;20124;-60
2022/05/12 14:12:25;;;;;;;5.32;1.60;;;;;;;;;;5011238;28;20629;-61
2022/05/12 14:20:25;;;;;;;6.63;1.63;;;;;;;;;;5009661;28;20057;-59
2022/05/12 14:22:51;;;;;;;4.78;1.30;;;;;;;;;;5010274;28;20045;-61
2022/05/12 14:25:17;;;;;;;6.30;1.50;;;;;;;;;;5013047;28;20499;-62
2022/05/12 14:27:43;;;;;;;2.95;1.25;;;;;;;;;;5008734;28;20184;-61
2022/05/12 14:30:09;;;;;;;5.05;1.30;;;;;;;;;;5012871;28;20077;-61
2022/05/12 14:32:43;;;;;;;5.43;1.67;;;;;;;;;;5012371;28;20499;-61
2022/05/12 14:35:10;;;;;;;4.18;1.58;;;;;;;;;;5011278;28;20041;-61
2022/05/12 14:37:37;;;;;;;3.20;1.10;;;;;;;;;;5011723;28;20491;-61
2022/05/12 14:40:04;;;;;;;2.10;1.30;;;;;;;;;;5014003;28;20048;-61
2022/05/12 14:42:30;;;;;;;3.53;1.38;;;;;;;;;;5009551;28;20400;-61
2022/05/12 14:44:56;;;;;;;5.03;1.60;;;;;;;;;;5010106;28;20046;-61
2022/05/12 14:47:24;;;;;;;3.65;1.20;;;;;;;;;;5011745;28;20041;-61
2022/05/12 14:49:50;;;;;;;4.28;1.20;;;;;;;;;;5012796;28;20074;-61
2022/05/12 14:52:18;;;;;;;4.47;1.52;;;;;;;;;;5009816;28;20034;-61
2022/05/12 14:54:44;;;;;;;5.90;2.10;;;;;;;;;;5007033;28;20083;-61
2022/05/12 14:57:10;;;;;;;3.67;1.38;;;;;;;;;;5012019;28;20556;-61
2022/05/12 14:59:36;;;;;;;3.28;1.88;;;;;;;;;;5004464;28;20534;-61
2022/05/12 15:02:04;;;;;;;4.93;1.85;;;;;;;;;;5025655;23;20046;-59
2022/05/12 15:04:31;;;;;;;5.28;1.65;;;;;;;;;;5013806;28;20091;-60
2022/05/12 15:06:57;;;;;;;4.88;1.40;;;;;;;;;;5011320;28;20480;-59
2022/05/12 15:09:23;;;;;;;5.07;1.65;;;;;;;;;;5012465;28;20411;-59
2022/05/12 15:11:50;;;;;;;5.00;1.50;;;;;;;;;;5001041;28;20116;-60
2022/05/12 15:14:16;;;;;;;4.38;1.48;;;;;;;;;;4986657;28;20521;-59
2022/05/12 15:16:42;;;;;;;5.70;1.20;;;;;;;;;;4986367;28;20042;-60
2022/05/12 15:19:08;;;;;;;4.60;1.77;;;;;;;;;;4992524;28;20037;-60
2022/05/12 15:21:34;;;;;;;4.28;1.35;;;;;;;;;;5013593;28;20037;-60